sensor_id;sensor_type;location;lat;lon;timestamp;pressure;altitude;pressure_sealevel;temperature;humidity
36748;BME280;22716;51.556;5.080;2022-08-19T00:02:14;101148.97;;;20.43;100.00
36748;BME280;22716;51.556;5.080;2022-08-19T00:04:43;101154.47;;;20.38;100.00
36748;BME280;22716;51.556;5.080;2022-08-19T00:07:17;101147.72;;;20.31;100.00
36748;BME280;22716;51.556;5.080;2022-08-19T00:09:47;101148.56;;;20.32;100.00
36748;BME280;22716;51.556;5.080;2022-08-19T00:12:17;101155.91;;;20.27;100.00
36748;BME280;22716;51.556;5.080;2022-08-19T00:14:50;101145.00;;;20.12;100.00
36748;BME280;22716;51.556;5.080;2022-08-19T00:17:24;101160.72;;;20.17;100.00
36748;BME280;22716;51.556;5.080;2022-08-19T00:19:53;101163.53;;;20.14;100.00
36748;BME280;22716;51.556;5.080;2022-08-19T00:22:24;101158.34;;;20.11;100.00
36748;BME280;22716;51.556;5.080;2022-08-19T00:24:54;101155.78;;;20.09;100.00
36748;BME280;22716;51.556;5.080;2022-08-19T00:27:23;101159.31;;;20.10;100.00
36748;BME280;22716;51.556;5.080;2022-08-19T00:29:52;101158.56;;;20.06;100.00
36748;BME280;22716;51.556;5.080;2022-08-19T00:32:22;101157.91;;;20.01;100.00
36748;BME280;22716;51.556;5.080;2022-08-19T00:34:51;101151.88;;;19.98;100.00
36748;BME280;22716;51.556;5.080;2022-08-19T00:37:24;101156.81;;;20.05;100.00
36748;BME280;22716;51.556;5.080;2022-08-19T00:39:56;101157.84;;;20.03;100.00
36748;BME280;22716;51.556;5.080;2022-08-19T00:42:25;101162.50;;;19.98;100.00
36748;BME280;22716;51.556;5.080;2022-08-19T00:44:56;101161.97;;;19.90;100.00
36748;BME280;22716;51.556;5.080;2022-08-19T00:47:26;101164.50;;;19.93;100.00
36748;BME280;22716;51.556;5.080;2022-08-19T00:50:10;101148.72;;;19.88;100.00
36748;BME280;22716;51.556;5.080;2022-08-19T00:52:46;101167.94;;;19.95;100.00
36748;BME280;22716;51.556;5.080;2022-08-19T00:55:22;101162.81;;;19.90;100.00
36748;BME280;22716;51.556;5.080;2022-08-19T00:57:56;101155.78;;;19.89;100.00
36748;BME280;22716;51.556;5.080;2022-08-19T01:00:31;101154.91;;;19.89;100.00
36748;BME280;22716;51.556;5.080;2022-08-19T01:03:12;101143.09;;;19.76;100.00
36748;BME280;22716;51.556;5.080;2022-08-19T01:05:48;101158.63;;;19.85;100.00
36748;BME280;22716;51.556;5.080;2022-08-19T01:08:20;101160.50;;;19.83;100.00
36748;BME280;22716;51.556;5.080;2022-08-19T01:10:52;101163.03;;;19.86;100.00
36748;BME280;22716;51.556;5.080;2022-08-19T01:13:33;101159.72;;;19.81;100.00
36748;BME280;22716;51.556;5.080;2022-08-19T01:16:07;101155.59;;;19.74;100.00
36748;BME280;22716;51.556;5.080;2022-08-19T01:18:41;101162.63;;;19.75;100.00
36748;BME280;22716;51.556;5.080;2022-08-19T01:21:18;101158.50;;;19.68;100.00
36748;BME280;22716;51.556;5.080;2022-08-19T01:24:03;101160.50;;;19.63;100.00
36748;BME280;22716;51.556;5.080;2022-08-19T01:26:42;101161.56;;;19.58;100.00
36748;BME280;22716;51.556;5.080;2022-08-19T01:29:17;101151.44;;;19.46;100.00
36748;BME280;22716;51.556;5.080;2022-08-19T01:31:52;101121.09;;;19.30;100.00
36748;BME280;22716;51.556;5.080;2022-08-19T01:34:21;101145.34;;;19.44;100.00
36748;BME280;22716;51.556;5.080;2022-08-19T01:36:51;101156.69;;;19.48;100.00
36748;BME280;22716;51.556;5.080;2022-08-19T01:39:25;101155.91;;;19.46;100.00
36748;BME280;22716;51.556;5.080;2022-08-19T01:41:55;101158.38;;;19.50;100.00
36748;BME280;22716;51.556;5.080;2022-08-19T01:44:24;101157.38;;;19.53;100.00
36748;BME280;22716;51.556;5.080;2022-08-19T01:46:53;101155.56;;;19.53;100.00
36748;BME280;22716;51.556;5.080;2022-08-19T01:49:27;101157.38;;;19.53;100.00
36748;BME280;22716;51.556;5.080;2022-08-19T01:51:56;101164.47;;;19.52;100.00
36748;BME280;22716;51.556;5.080;2022-08-19T01:54:31;101155.53;;;19.33;100.00
36748;BME280;22716;51.556;5.080;2022-08-19T01:57:11;101162.75;;;19.30;100.00
36748;BME280;22716;51.556;5.080;2022-08-19T01:59:44;101163.06;;;19.22;100.00
36748;BME280;22716;51.556;5.080;2022-08-19T02:02:13;101159.66;;;19.19;100.00
36748;BME280;22716;51.556;5.080;2022-08-19T02:04:43;101171.16;;;19.19;100.00
36748;BME280;22716;51.556;5.080;2022-08-19T02:07:12;101166.88;;;19.15;100.00
36748;BME280;22716;51.556;5.080;2022-08-19T02:09:44;101173.00;;;19.17;100.00
36748;BME280;22716;51.556;5.080;2022-08-19T02:12:14;101176.47;;;19.19;100.00
36748;BME280;22716;51.556;5.080;2022-08-19T02:14:43;101173.94;;;19.16;100.00
36748;BME280;22716;51.556;5.080;2022-08-19T02:17:13;101183.50;;;19.20;100.00
36748;BME280;22716;51.556;5.080;2022-08-19T02:19:44;101183.06;;;19.09;100.00
36748;BME280;22716;51.556;5.080;2022-08-19T02:22:16;101176.22;;;19.03;100.00
36748;BME280;22716;51.556;5.080;2022-08-19T02:24:47;101187.94;;;18.98;100.00
36748;BME280;22716;51.556;5.080;2022-08-19T02:27:17;101180.22;;;18.92;100.00
36748;BME280;22716;51.556;5.080;2022-08-19T02:29:47;101179.56;;;18.87;100.00
36748;BME280;22716;51.556;5.080;2022-08-19T02:32:17;101171.72;;;18.84;100.00
36748;BME280;22716;51.556;5.080;2022-08-19T02:34:46;101175.28;;;18.83;100.00
36748;BME280;22716;51.556;5.080;2022-08-19T02:37:16;101175.28;;;18.83;100.00
36748;BME280;22716;51.556;5.080;2022-08-19T02:39:59;101174.41;;;18.82;100.00
36748;BME280;22716;51.556;5.080;2022-08-19T02:42:29;101179.56;;;18.87;100.00
36748;BME280;22716;51.556;5.080;2022-08-19T02:44:57;101181.50;;;18.82;100.00
36748;BME280;22716;51.556;5.080;2022-08-19T02:47:26;101175.50;;;18.77;100.00
36748;BME280;22716;51.556;5.080;2022-08-19T02:50:00;101178.41;;;18.71;100.00
36748;BME280;22716;51.556;5.080;2022-08-19T02:52:31;101173.09;;;18.71;100.00
36748;BME280;22716;51.556;5.080;2022-08-19T02:55:08;101171.38;;;18.70;100.00
36748;BME280;22716;51.556;5.080;2022-08-19T02:57:37;101181.16;;;18.68;100.00
36748;BME280;22716;51.556;5.080;2022-08-19T03:00:08;101177.59;;;18.69;100.00
36748;BME280;22716;51.556;5.080;2022-08-19T03:02:38;101167.16;;;18.64;100.00
36748;BME280;22716;51.556;5.080;2022-08-19T03:05:09;101169.53;;;18.72;100.00
36748;BME280;22716;51.556;5.080;2022-08-19T03:07:44;101157.13;;;18.72;100.00
36748;BME280;22716;51.556;5.080;2022-08-19T03:10:16;101176.38;;;18.77;100.00
36748;BME280;22716;51.556;5.080;2022-08-19T03:12:45;101167.00;;;18.69;100.00
36748;BME280;22716;51.556;5.080;2022-08-19T03:15:34;101157.28;;;18.68;100.00
36748;BME280;22716;51.556;5.080;2022-08-19T03:18:04;101166.06;;;18.70;100.00
36748;BME280;22716;51.556;5.080;2022-08-19T03:20:34;101168.66;;;18.71;100.00
36748;BME280;22716;51.556;5.080;2022-08-19T03:23:02;101172.28;;;18.69;100.00
36748;BME280;22716;51.556;5.080;2022-08-19T03:25:37;101174.03;;;18.70;100.00
36748;BME280;22716;51.556;5.080;2022-08-19T03:28:07;101183.03;;;18.66;100.00
36748;BME280;22716;51.556;5.080;2022-08-19T03:30:36;101172.53;;;18.63;100.00
36748;BME280;22716;51.556;5.080;2022-08-19T03:33:07;101167.25;;;18.61;100.00
36748;BME280;22716;51.556;5.080;2022-08-19T03:35:39;101171.66;;;18.62;100.00
36748;BME280;22716;51.556;5.080;2022-08-19T03:38:08;101175.22;;;18.61;100.00
36748;BME280;22716;51.556;5.080;2022-08-19T03:40:40;101173.53;;;18.60;100.00
36748;BME280;22716;51.556;5.080;2022-08-19T03:43:09;101176.16;;;18.60;100.00
36748;BME280;22716;51.556;5.080;2022-08-19T03:45:38;101176.22;;;18.59;100.00
36748;BME280;22716;51.556;5.080;2022-08-19T03:48:07;101170.66;;;18.65;100.00
36748;BME280;22716;51.556;5.080;2022-08-19T03:50:40;101172.28;;;18.69;100.00
36748;BME280;22716;51.556;5.080;2022-08-19T03:53:18;101168.72;;;18.70;100.00
36748;BME280;22716;51.556;5.080;2022-08-19T03:55:49;101161.69;;;18.69;100.00
36748;BME280;22716;51.556;5.080;2022-08-19T03:58:18;101155.56;;;18.67;100.00
36748;BME280;22716;51.556;5.080;2022-08-19T04:00:47;101153.03;;;18.64;100.00
36748;BME280;22716;51.556;5.080;2022-08-19T04:03:16;101160.13;;;18.63;100.00
36748;BME280;22716;51.556;5.080;2022-08-19T04:05:45;101159.25;;;18.63;100.00
36748;BME280;22716;51.556;5.080;2022-08-19T04:08:15;101163.78;;;18.61;100.00
36748;BME280;22716;51.556;5.080;2022-08-19T04:10:51;101161.38;;;18.53;100.00
36748;BME280;22716;51.556;5.080;2022-08-19T04:13:20;101162.38;;;18.51;100.00
36748;BME280;22716;51.556;5.080;2022-08-19T04:15:49;101160.53;;;18.53;100.00
36748;BME280;22716;51.556;5.080;2022-08-19T04:18:18;101160.41;;;18.56;100.00
36748;BME280;22716;51.556;5.080;2022-08-19T04:20:47;101156.78;;;18.58;100.00
36748;BME280;22716;51.556;5.080;2022-08-19T04:23:16;101156.97;;;18.54;100.00
36748;BME280;22716;51.556;5.080;2022-08-19T04:25:45;101158.03;;;18.48;100.00
36748;BME280;22716;51.556;5.080;2022-08-19T04:28:17;101157.16;;;18.47;100.00
36748;BME280;22716;51.556;5.080;2022-08-19T04:30:51;101155.41;;;18.46;100.00
36748;BME280;22716;51.556;5.080;2022-08-19T04:33:31;101154.72;;;18.41;100.00
36748;BME280;22716;51.556;5.080;2022-08-19T04:36:00;101156.75;;;18.35;100.00
36748;BME280;22716;51.556;5.080;2022-08-19T04:38:28;101151.63;;;18.30;100.00
36748;BME280;22716;51.556;5.080;2022-08-19T04:41:18;101150.81;;;18.28;100.00
36748;BME280;22716;51.556;5.080;2022-08-19T04:44:09;101149.31;;;18.21;100.00
36748;BME280;22716;51.556;5.080;2022-08-19T04:46:39;101160.69;;;18.25;100.00
36748;BME280;22716;51.556;5.080;2022-08-19T04:49:08;101159.72;;;18.26;100.00
36748;BME280;22716;51.556;5.080;2022-08-19T04:51:42;101161.78;;;18.19;100.00
36748;BME280;22716;51.556;5.080;2022-08-19T04:54:13;101161.78;;;18.19;100.00
36748;BME280;22716;51.556;5.080;2022-08-19T04:56:53;101174.91;;;18.22;100.00
36748;BME280;22716;51.556;5.080;2022-08-19T04:59:25;101168.84;;;18.19;100.00
36748;BME280;22716;51.556;5.080;2022-08-19T05:01:54;101176.63;;;18.23;100.00
36748;BME280;22716;51.556;5.080;2022-08-19T05:04:23;101181.81;;;18.26;100.00
36748;BME280;22716;51.556;5.080;2022-08-19T05:06:51;101182.16;;;18.17;100.00
36748;BME280;22716;51.556;5.080;2022-08-19T05:09:21;101187.53;;;18.16;100.00
36748;BME280;22716;51.556;5.080;2022-08-19T05:11:49;101184.91;;;18.14;100.00
36748;BME280;22716;51.556;5.080;2022-08-19T05:14:19;101186.63;;;18.17;100.00
36748;BME280;22716;51.556;5.080;2022-08-19T05:16:52;101186.53;;;18.18;100.00
36748;BME280;22716;51.556;5.080;2022-08-19T05:19:20;101187.25;;;18.23;100.00
36748;BME280;22716;51.556;5.080;2022-08-19T05:22:03;101197.03;;;18.21;100.00
36748;BME280;22716;51.556;5.080;2022-08-19T05:24:45;101195.53;;;18.14;100.00
36748;BME280;22716;51.556;5.080;2022-08-19T05:27:25;101204.31;;;18.16;100.00
36748;BME280;22716;51.556;5.080;2022-08-19T05:29:54;101193.47;;;18.22;100.00
36748;BME280;22716;51.556;5.080;2022-08-19T05:32:26;101190.75;;;18.24;100.00
36748;BME280;22716;51.556;5.080;2022-08-19T05:34:56;101193.31;;;18.27;100.00
36748;BME280;22716;51.556;5.080;2022-08-19T05:37:25;101192.31;;;18.29;100.00
36748;BME280;22716;51.556;5.080;2022-08-19T05:39:54;101196.81;;;18.27;100.00
36748;BME280;22716;51.556;5.080;2022-08-19T05:42:24;101184.38;;;18.29;100.00
36748;BME280;22716;51.556;5.080;2022-08-19T05:44:53;101201.09;;;18.31;100.00
36748;BME280;22716;51.556;5.080;2022-08-19T05:47:22;101193.16;;;18.31;100.00
36748;BME280;22716;51.556;5.080;2022-08-19T05:50:05;101199.94;;;18.38;100.00
36748;BME280;22716;51.556;5.080;2022-08-19T05:52:34;101185.53;;;18.45;100.00
36748;BME280;22716;51.556;5.080;2022-08-19T05:55:08;101195.84;;;18.55;100.00
36748;BME280;22716;51.556;5.080;2022-08-19T05:57:37;101193.00;;;18.59;100.00
36748;BME280;22716;51.556;5.080;2022-08-19T06:00:14;101186.03;;;18.57;100.00
36748;BME280;22716;51.556;5.080;2022-08-19T06:02:44;101204.38;;;18.63;100.00
36748;BME280;22716;51.556;5.080;2022-08-19T06:05:16;101195.72;;;18.58;100.00
36748;BME280;22716;51.556;5.080;2022-08-19T06:07:48;101202.72;;;18.60;100.00
36748;BME280;22716;51.556;5.080;2022-08-19T06:10:17;101200.97;;;18.59;100.00
36748;BME280;22716;51.556;5.080;2022-08-19T06:12:48;101186.91;;;18.57;100.00
36748;BME280;22716;51.556;5.080;2022-08-19T06:15:17;101205.63;;;18.76;100.00
36748;BME280;22716;51.556;5.080;2022-08-19T06:17:47;101185.50;;;18.70;100.00
36748;BME280;22716;51.556;5.080;2022-08-19T06:20:19;101198.66;;;18.73;100.00
36748;BME280;22716;51.556;5.080;2022-08-19T06:22:49;101198.66;;;18.73;100.00
36748;BME280;22716;51.556;5.080;2022-08-19T06:25:18;101200.28;;;18.77;100.00
36748;BME280;22716;51.556;5.080;2022-08-19T06:27:58;101194.88;;;18.79;100.00
36748;BME280;22716;51.556;5.080;2022-08-19T06:30:27;101201.94;;;18.80;100.00
36748;BME280;22716;51.556;5.080;2022-08-19T06:32:57;101206.34;;;18.81;100.00
36748;BME280;22716;51.556;5.080;2022-08-19T06:35:28;101204.59;;;18.80;100.00
36748;BME280;22716;51.556;5.080;2022-08-19T06:37:57;101209.75;;;18.84;100.00
36748;BME280;22716;51.556;5.080;2022-08-19T06:40:27;101211.28;;;18.90;100.00
36748;BME280;22716;51.556;5.080;2022-08-19T06:42:57;101205.97;;;18.90;100.00
36748;BME280;22716;51.556;5.080;2022-08-19T06:45:27;101203.22;;;18.93;100.00
36748;BME280;22716;51.556;5.080;2022-08-19T06:47:56;101205.03;;;18.91;100.00
36748;BME280;22716;51.556;5.080;2022-08-19T06:50:31;101209.31;;;18.95;100.00
36748;BME280;22716;51.556;5.080;2022-08-19T06:53:01;101215.38;;;18.98;100.00
36748;BME280;22716;51.556;5.080;2022-08-19T06:55:31;101202.72;;;19.05;100.00
36748;BME280;22716;51.556;5.080;2022-08-19T06:58:02;101214.91;;;19.11;100.00
36748;BME280;22716;51.556;5.080;2022-08-19T07:00:40;101212.38;;;19.08;100.00
36748;BME280;22716;51.556;5.080;2022-08-19T07:03:13;101209.50;;;19.12;100.00
36748;BME280;22716;51.556;5.080;2022-08-19T07:05:45;101211.25;;;19.13;100.00
36748;BME280;22716;51.556;5.080;2022-08-19T07:08:14;101212.00;;;19.17;100.00
36748;BME280;22716;51.556;5.080;2022-08-19T07:10:53;101227.06;;;19.16;100.00
36748;BME280;22716;51.556;5.080;2022-08-19T07:13:24;101221.75;;;19.16;100.00
36748;BME280;22716;51.556;5.080;2022-08-19T07:15:59;101224.53;;;19.13;100.00
36748;BME280;22716;51.556;5.080;2022-08-19T07:18:32;101220.88;;;19.16;100.00
36748;BME280;22716;51.556;5.080;2022-08-19T07:21:09;101218.97;;;19.19;100.00
36748;BME280;22716;51.556;5.080;2022-08-19T07:23:39;101224.88;;;19.26;100.00
36748;BME280;22716;51.556;5.080;2022-08-19T07:26:10;101221.94;;;19.33;100.00
36748;BME280;22716;51.556;5.080;2022-08-19T07:28:44;101194.69;;;19.28;100.00
36748;BME280;22716;51.556;5.080;2022-08-19T07:31:17;101219.81;;;19.43;100.00
36748;BME280;22716;51.556;5.080;2022-08-19T07:33:48;101222.03;;;19.53;100.00
36748;BME280;22716;51.556;5.080;2022-08-19T07:36:23;101225.97;;;19.65;100.00
36748;BME280;22716;51.556;5.080;2022-08-19T07:38:57;101225.50;;;19.76;100.00
36748;BME280;22716;51.556;5.080;2022-08-19T07:41:28;101220.75;;;19.84;100.00
36748;BME280;22716;51.556;5.080;2022-08-19T07:43:59;101220.78;;;19.82;100.00
36748;BME280;22716;51.556;5.080;2022-08-19T07:46:30;101207.88;;;19.73;100.00
36748;BME280;22716;51.556;5.080;2022-08-19T07:48:59;101225.41;;;19.99;100.00
36748;BME280;22716;51.556;5.080;2022-08-19T07:51:31;101226.47;;;20.15;100.00
36748;BME280;22716;51.556;5.080;2022-08-19T07:54:00;101229.47;;;20.07;100.00
36748;BME280;22716;51.556;5.080;2022-08-19T07:56:29;101230.44;;;20.05;100.00
36748;BME280;22716;51.556;5.080;2022-08-19T07:58:58;101238.00;;;20.14;100.00
36748;BME280;22716;51.556;5.080;2022-08-19T08:01:27;101235.03;;;20.22;100.00
36748;BME280;22716;51.556;5.080;2022-08-19T08:03:58;101237.97;;;20.16;100.00
36748;BME280;22716;51.556;5.080;2022-08-19T08:06:43;101239.63;;;20.18;100.00
36748;BME280;22716;51.556;5.080;2022-08-19T08:09:28;101239.91;;;20.32;100.00
36748;BME280;22716;51.556;5.080;2022-08-19T08:12:02;101239.59;;;20.40;100.00
36748;BME280;22716;51.556;5.080;2022-08-19T08:14:35;101239.78;;;20.35;100.00
36748;BME280;22716;51.556;5.080;2022-08-19T08:17:20;101244.56;;;20.27;100.00
36748;BME280;22716;51.556;5.080;2022-08-19T08:19:49;101250.81;;;20.26;100.00
36748;BME280;22716;51.556;5.080;2022-08-19T08:22:26;101248.03;;;20.29;100.00
36748;BME280;22716;51.556;5.080;2022-08-19T08:25:12;101252.47;;;20.29;100.00
36748;BME280;22716;51.556;5.080;2022-08-19T08:27:46;101255.28;;;20.26;100.00
36748;BME280;22716;51.556;5.080;2022-08-19T08:30:22;101260.59;;;20.26;100.00
36748;BME280;22716;51.556;5.080;2022-08-19T08:32:51;101259.66;;;20.27;100.00
36748;BME280;22716;51.556;5.080;2022-08-19T08:35:23;101262.41;;;20.25;100.00
36748;BME280;22716;51.556;5.080;2022-08-19T08:37:55;101265.22;;;20.21;100.00
36748;BME280;22716;51.556;5.080;2022-08-19T08:40:33;101270.50;;;20.22;100.00
36748;BME280;22716;51.556;5.080;2022-08-19T08:43:27;101264.13;;;20.26;100.00
36748;BME280;22716;51.556;5.080;2022-08-19T08:46:12;101266.78;;;20.26;100.00
36748;BME280;22716;51.556;5.080;2022-08-19T08:48:48;101271.09;;;20.29;100.00
36748;BME280;22716;51.556;5.080;2022-08-19T08:51:22;101276.38;;;20.30;100.00
36748;BME280;22716;51.556;5.080;2022-08-19T08:54:05;101281.88;;;20.26;100.00
36748;BME280;22716;51.556;5.080;2022-08-19T08:56:38;101280.13;;;20.25;100.00
36748;BME280;22716;51.556;5.080;2022-08-19T08:59:16;101282.94;;;20.22;100.00
36748;BME280;22716;51.556;5.080;2022-08-19T09:01:50;101276.75;;;20.21;100.00
36748;BME280;22716;51.556;5.080;2022-08-19T09:04:19;101284.59;;;20.24;100.00
36748;BME280;22716;51.556;5.080;2022-08-19T09:07:12;101286.38;;;20.25;100.00
36748;BME280;22716;51.556;5.080;2022-08-19T09:09:52;101287.16;;;20.27;100.00
36748;BME280;22716;51.556;5.080;2022-08-19T09:12:37;101270.25;;;20.28;100.00
36748;BME280;22716;51.556;5.080;2022-08-19T09:15:12;101280.56;;;20.36;100.00
36748;BME280;22716;51.556;5.080;2022-08-19T09:18:06;101286.41;;;20.44;100.00
36748;BME280;22716;51.556;5.080;2022-08-19T09:20:37;101284.47;;;20.47;100.00
36748;BME280;22716;51.556;5.080;2022-08-19T09:23:06;101286.28;;;20.47;100.00
36748;BME280;22716;51.556;5.080;2022-08-19T09:25:40;101294.19;;;20.48;100.00
36748;BME280;22716;51.556;5.080;2022-08-19T09:28:08;101295.06;;;20.49;100.00
36748;BME280;22716;51.556;5.080;2022-08-19T09:30:42;101290.44;;;20.52;100.00
36748;BME280;22716;51.556;5.080;2022-08-19T09:33:11;101294.91;;;20.52;100.00
36748;BME280;22716;51.556;5.080;2022-08-19T09:35:39;101287.66;;;20.55;100.00
36748;BME280;22716;51.556;5.080;2022-08-19T09:38:08;101290.56;;;20.69;100.00
36748;BME280;22716;51.556;5.080;2022-08-19T09:40:40;101282.38;;;20.74;100.00
36748;BME280;22716;51.556;5.080;2022-08-19T09:43:09;101294.28;;;20.86;100.00
36748;BME280;22716;51.556;5.080;2022-08-19T09:45:38;101292.38;;;20.88;100.00
36748;BME280;22716;51.556;5.080;2022-08-19T09:48:08;101294.03;;;20.90;100.00
36748;BME280;22716;51.556;5.080;2022-08-19T09:50:38;101298.13;;;20.99;100.00
36748;BME280;22716;51.556;5.080;2022-08-19T09:53:06;101290.56;;;21.08;100.00
36748;BME280;22716;51.556;5.080;2022-08-19T09:55:35;101291.16;;;21.15;100.00
36748;BME280;22716;51.556;5.080;2022-08-19T09:58:07;101294.13;;;21.28;100.00
36748;BME280;22716;51.556;5.080;2022-08-19T10:00:38;101298.19;;;21.35;100.00
36748;BME280;22716;51.556;5.080;2022-08-19T10:03:07;101299.00;;;21.37;100.00
36748;BME280;22716;51.556;5.080;2022-08-19T10:05:37;101281.75;;;21.44;100.00
36748;BME280;22716;51.556;5.080;2022-08-19T10:08:22;101292.13;;;21.50;100.00
36748;BME280;22716;51.556;5.080;2022-08-19T10:10:53;101292.56;;;21.59;100.00
36748;BME280;22716;51.556;5.080;2022-08-19T10:13:28;101280.59;;;21.49;100.00
36748;BME280;22716;51.556;5.080;2022-08-19T10:16:06;101295.72;;;21.49;100.00
36748;BME280;22716;51.556;5.080;2022-08-19T10:18:38;101299.94;;;21.54;100.00
36748;BME280;22716;51.556;5.080;2022-08-19T10:21:13;101291.53;;;21.62;100.00
36748;BME280;22716;51.556;5.080;2022-08-19T10:23:44;101295.06;;;21.62;100.00
36748;BME280;22716;51.556;5.080;2022-08-19T10:26:18;101288.81;;;21.63;100.00
36748;BME280;22716;51.556;5.080;2022-08-19T10:28:50;101273.50;;;21.67;100.00
36748;BME280;22716;51.556;5.080;2022-08-19T10:31:22;101276.88;;;21.70;100.00
36748;BME280;22716;51.556;5.080;2022-08-19T10:33:55;101275.66;;;21.77;100.00
36748;BME280;22716;51.556;5.080;2022-08-19T10:36:30;101274.28;;;21.88;100.00
36748;BME280;22716;51.556;5.080;2022-08-19T10:39:04;101273.75;;;21.98;100.00
36748;BME280;22716;51.556;5.080;2022-08-19T10:41:34;101276.00;;;22.06;100.00
36748;BME280;22716;51.556;5.080;2022-08-19T10:44:09;101274.53;;;22.17;99.90
36748;BME280;22716;51.556;5.080;2022-08-19T10:46:43;101276.56;;;22.29;99.32
36748;BME280;22716;51.556;5.080;2022-08-19T10:49:14;101284.84;;;22.41;99.31
36748;BME280;22716;51.556;5.080;2022-08-19T10:52:06;101279.91;;;22.50;98.41
36748;BME280;22716;51.556;5.080;2022-08-19T10:54:47;101274.94;;;22.60;98.26
36748;BME280;22716;51.556;5.080;2022-08-19T10:57:30;101276.50;;;22.64;98.56
36748;BME280;22716;51.556;5.080;2022-08-19T11:00:04;101261.22;;;22.67;98.47
36748;BME280;22716;51.556;5.080;2022-08-19T11:02:34;101273.13;;;22.77;98.05
36748;BME280;22716;51.556;5.080;2022-08-19T11:05:05;101263.66;;;22.87;97.69
36748;BME280;22716;51.556;5.080;2022-08-19T11:07:35;101264.78;;;22.99;97.25
36748;BME280;22716;51.556;5.080;2022-08-19T11:10:06;101261.09;;;23.02;96.17
36748;BME280;22716;51.556;5.080;2022-08-19T11:12:43;101269.72;;;23.07;96.19
36748;BME280;22716;51.556;5.080;2022-08-19T11:15:15;101262.66;;;23.06;96.48
36748;BME280;22716;51.556;5.080;2022-08-19T11:17:44;101278.19;;;23.15;95.78
36748;BME280;22716;51.556;5.080;2022-08-19T11:20:14;101272.31;;;23.24;94.93
36748;BME280;22716;51.556;5.080;2022-08-19T11:22:44;101265.06;;;23.26;94.94
36748;BME280;22716;51.556;5.080;2022-08-19T11:25:19;101268.44;;;23.29;94.65
36748;BME280;22716;51.556;5.080;2022-08-19T11:27:48;101269.91;;;23.35;94.37
36748;BME280;22716;51.556;5.080;2022-08-19T11:30:21;101268.72;;;23.40;93.96
36748;BME280;22716;51.556;5.080;2022-08-19T11:32:49;101265.00;;;23.43;93.85
36748;BME280;22716;51.556;5.080;2022-08-19T11:35:18;101252.31;;;23.47;93.06
36748;BME280;22716;51.556;5.080;2022-08-19T11:37:49;101259.81;;;23.71;92.02
36748;BME280;22716;51.556;5.080;2022-08-19T11:40:18;101265.97;;;23.87;91.36
36748;BME280;22716;51.556;5.080;2022-08-19T11:42:47;101252.81;;;23.98;90.07
36748;BME280;22716;51.556;5.080;2022-08-19T11:45:28;101249.00;;;24.18;89.36
36748;BME280;22716;51.556;5.080;2022-08-19T11:47:57;101249.09;;;24.31;88.72
36748;BME280;22716;51.556;5.080;2022-08-19T11:50:26;101249.09;;;24.31;88.60
36748;BME280;22716;51.556;5.080;2022-08-19T11:52:55;101241.16;;;24.29;88.63
36748;BME280;22716;51.556;5.080;2022-08-19T11:55:26;101255.50;;;24.28;88.63
36748;BME280;22716;51.556;5.080;2022-08-19T11:57:55;101239.34;;;24.16;88.06
36748;BME280;22716;51.556;5.080;2022-08-19T12:00:24;101256.34;;;24.15;88.60
36748;BME280;22716;51.556;5.080;2022-08-19T12:02:55;101251.75;;;24.17;88.19
36748;BME280;22716;51.556;5.080;2022-08-19T12:05:24;101262.03;;;24.09;88.89
36748;BME280;22716;51.556;5.080;2022-08-19T12:07:53;101256.28;;;24.01;89.12
36748;BME280;22716;51.556;5.080;2022-08-19T12:10:23;101259.56;;;23.90;89.69
36748;BME280;22716;51.556;5.080;2022-08-19T12:12:52;101263.16;;;23.75;90.49
36748;BME280;22716;51.556;5.080;2022-08-19T12:15:21;101262.16;;;23.62;91.85
36748;BME280;22716;51.556;5.080;2022-08-19T12:17:50;101259.38;;;23.63;91.79
36748;BME280;22716;51.556;5.080;2022-08-19T12:20:25;101268.09;;;23.67;92.17
36748;BME280;22716;51.556;5.080;2022-08-19T12:22:54;101267.84;;;23.71;92.16
36748;BME280;22716;51.556;5.080;2022-08-19T12:25:23;101266.22;;;23.69;92.25
36748;BME280;22716;51.556;5.080;2022-08-19T12:27:52;101267.03;;;23.69;92.37
36748;BME280;22716;51.556;5.080;2022-08-19T12:30:21;101252.03;;;23.67;92.12
36748;BME280;22716;51.556;5.080;2022-08-19T12:32:50;101261.63;;;23.71;92.41
36748;BME280;22716;51.556;5.080;2022-08-19T12:35:20;101269.66;;;23.71;92.67
36748;BME280;22716;51.556;5.080;2022-08-19T12:37:52;101257.50;;;23.65;93.52
36748;BME280;22716;51.556;5.080;2022-08-19T12:40:22;101264.97;;;23.74;93.35
36748;BME280;22716;51.556;5.080;2022-08-19T12:42:51;101251.09;;;23.68;93.71
36748;BME280;22716;51.556;5.080;2022-08-19T12:45:19;101257.78;;;23.75;93.75
36748;BME280;22716;51.556;5.080;2022-08-19T12:47:48;101259.28;;;23.80;93.66
36748;BME280;22716;51.556;5.080;2022-08-19T12:50:18;101258.47;;;23.78;93.94
36748;BME280;22716;51.556;5.080;2022-08-19T12:52:50;101256.09;;;23.74;94.22
36748;BME280;22716;51.556;5.080;2022-08-19T12:55:19;101256.16;;;23.72;94.27
36748;BME280;22716;51.556;5.080;2022-08-19T12:57:49;101252.72;;;23.70;94.79
36748;BME280;22716;51.556;5.080;2022-08-19T13:00:22;101254.03;;;23.63;95.34
36748;BME280;22716;51.556;5.080;2022-08-19T13:02:52;101242.66;;;23.60;95.26
36748;BME280;22716;51.556;5.080;2022-08-19T13:05:24;101246.09;;;23.62;95.26
36748;BME280;22716;51.556;5.080;2022-08-19T13:07:58;101249.97;;;23.72;94.77
36748;BME280;22716;51.556;5.080;2022-08-19T13:10:30;101246.16;;;23.76;95.09